Time;durP1;ratioP1;P1;durP2;ratioP2;P2;SDS_P1;SDS_P2;PMS_P1;PMS_P2;Temp;Humidity;BMP_temperature;BMP_pressure;BME280_temperature;BME280_humidity;BME280_pressure;Samples;Min_cycle;Max_cycle;Signal;HPM_P1;HPM_P2
2023/03/29 00:00:29;;;;;;;5.93;2.17;;;;;;;;;;4979653;28;20238;-71
2023/03/29 00:02:55;;;;;;;5.47;2.30;;;;;;;;;;4988044;28;20203;-71
2023/03/29 00:05:21;;;;;;;6.57;2.37;;;;;;;;;;4990194;28;20301;-71
2023/03/29 00:07:47;;;;;;;4.40;2.40;;;;;;;;;;4989385;28;20664;-71
2023/03/29 00:10:12;;;;;;;4.07;2.70;;;;;;;;;;4986715;28;20180;-71
2023/03/29 00:12:38;;;;;;;4.23;2.20;;;;;;;;;;4992150;28;20179;-71
2023/03/29 00:15:05;;;;;;;4.20;2.13;;;;;;;;;;4985082;28;20215;-71
2023/03/29 00:17:30;;;;;;;5.70;3.20;;;;;;;;;;4987280;28;20709;-71
2023/03/29 00:19:56;;;;;;;2.93;2.23;;;;;;;;;;4993547;28;20294;-71
2023/03/29 00:22:21;;;;;;;3.27;2.17;;;;;;;;;;4976522;28;20254;-71
2023/03/29 00:24:47;;;;;;;6.73;2.30;;;;;;;;;;4992104;28;20182;-71
2023/03/29 00:27:13;;;;;;;4.83;2.40;;;;;;;;;;4992724;28;20184;-71
2023/03/29 00:29:38;;;;;;;4.53;2.00;;;;;;;;;;4989880;28;20251;-71
2023/03/29 00:32:03;;;;;;;4.83;2.30;;;;;;;;;;4976069;28;20184;-71
2023/03/29 00:34:29;;;;;;;6.17;2.60;;;;;;;;;;4989068;28;20222;-71
2023/03/29 00:36:56;;;;;;;4.10;2.30;;;;;;;;;;4985148;28;20188;-71
2023/03/29 00:39:23;;;;;;;4.20;2.10;;;;;;;;;;4990779;28;20204;-71
2023/03/29 00:41:48;;;;;;;3.30;2.30;;;;;;;;;;4983958;28;20184;-71
2023/03/29 00:44:32;;;;;;;3.20;2.20;;;;;;;;;;4991512;28;20245;-71
2023/03/29 00:46:57;;;;;;;5.00;2.53;;;;;;;;;;4983805;28;20525;-71
2023/03/29 00:49:22;;;;;;;5.70;2.30;;;;;;;;;;4985812;28;20200;-71
2023/03/29 00:51:48;;;;;;;4.30;2.23;;;;;;;;;;4988491;28;20183;-71
2023/03/29 00:54:17;;;;;;;5.03;2.27;;;;;;;;;;4990050;28;20183;-71
2023/03/29 00:56:43;;;;;;;4.17;2.70;;;;;;;;;;4986540;28;20179;-71
2023/03/29 00:59:12;;;;;;;3.23;2.00;;;;;;;;;;4993865;28;20666;-71
2023/03/29 01:01:37;;;;;;;3.80;2.03;;;;;;;;;;4971551;28;20179;-71
2023/03/29 01:04:08;;;;;;;3.13;2.40;;;;;;;;;;4991710;28;20175;-71
2023/03/29 01:06:35;;;;;;;7.17;3.07;;;;;;;;;;4975800;28;20188;-72
2023/03/29 01:09:01;;;;;;;2.53;2.23;;;;;;;;;;4975565;28;20207;-71
2023/03/29 01:11:32;;;;;;;5.63;2.40;;;;;;;;;;4988025;28;20180;-71
2023/03/29 01:14:01;;;;;;;3.50;2.50;;;;;;;;;;4984325;28;20218;-71
2023/03/29 01:16:27;;;;;;;5.40;2.47;;;;;;;;;;4986910;28;20187;-71
2023/03/29 01:18:53;;;;;;;3.63;2.40;;;;;;;;;;4987428;28;20337;-72
2023/03/29 01:21:20;;;;;;;4.60;2.50;;;;;;;;;;4988221;28;20270;-71
2023/03/29 01:23:57;;;;;;;5.23;2.70;;;;;;;;;;4991556;28;20561;-71
2023/03/29 01:26:41;;;;;;;3.63;2.10;;;;;;;;;;4990378;28;20314;-71
2023/03/29 01:29:27;;;;;;;4.27;2.67;;;;;;;;;;4983419;28;20594;-72
2023/03/29 01:31:56;;;;;;;3.63;2.80;;;;;;;;;;4970951;28;20207;-71
2023/03/29 01:34:32;;;;;;;4.57;2.80;;;;;;;;;;4984119;28;20196;-71
2023/03/29 01:37:10;;;;;;;4.20;2.47;;;;;;;;;;4980603;28;20176;-71
2023/03/29 01:39:35;;;;;;;4.70;2.70;;;;;;;;;;4974381;28;20203;-71
2023/03/29 01:42:05;;;;;;;10.47;2.90;;;;;;;;;;4988395;28;20213;-71
2023/03/29 01:44:34;;;;;;;6.00;2.30;;;;;;;;;;4989792;28;20183;-71
2023/03/29 01:47:09;;;;;;;5.07;2.47;;;;;;;;;;4986986;28;20653;-71
2023/03/29 01:49:49;;;;;;;4.43;2.50;;;;;;;;;;4985867;28;20210;-71
2023/03/29 01:52:19;;;;;;;3.70;2.23;;;;;;;;;;4988221;28;20234;-71
2023/03/29 01:54:48;;;;;;;2.90;2.30;;;;;;;;;;4986235;28;20183;-71
2023/03/29 01:57:14;;;;;;;6.73;3.20;;;;;;;;;;4987693;28;20655;-71
2023/03/29 01:59:41;;;;;;;3.90;2.60;;;;;;;;;;4970669;28;20254;-71
2023/03/29 02:02:10;;;;;;;4.50;2.53;;;;;;;;;;4987899;28;20184;-71
2023/03/29 02:04:37;;;;;;;3.87;2.80;;;;;;;;;;4989851;28;20321;-71
2023/03/29 02:07:04;;;;;;;3.50;2.73;;;;;;;;;;4986654;28;20180;-71
2023/03/29 02:09:29;;;;;;;3.73;2.53;;;;;;;;;;4991362;28;20206;-71
2023/03/29 02:11:56;;;;;;;4.67;3.03;;;;;;;;;;4987875;28;20180;-71
2023/03/29 02:14:23;;;;;;;4.47;2.37;;;;;;;;;;4976908;28;20201;-71
2023/03/29 02:16:48;;;;;;;3.80;2.77;;;;;;;;;;4988431;28;20180;-71
2023/03/29 02:19:14;;;;;;;4.43;2.90;;;;;;;;;;4992268;28;20290;-71
2023/03/29 02:21:46;;;;;;;8.27;3.00;;;;;;;;;;4986923;28;20460;-71
2023/03/29 02:24:14;;;;;;;3.80;2.63;;;;;;;;;;4993192;28;20861;-71
2023/03/29 02:26:39;;;;;;;4.10;2.77;;;;;;;;;;4991566;28;20230;-71
2023/03/29 02:29:05;;;;;;;5.50;2.80;;;;;;;;;;4987771;28;20211;-71
2023/03/29 02:31:37;;;;;;;5.77;2.73;;;;;;;;;;4974444;28;20271;-71
2023/03/29 02:34:21;;;;;;;4.50;2.73;;;;;;;;;;4991793;28;20186;-71
2023/03/29 02:36:49;;;;;;;6.00;3.23;;;;;;;;;;4985968;28;20181;-71
2023/03/29 02:39:15;;;;;;;3.60;2.67;;;;;;;;;;4989480;28;20203;-71
2023/03/29 02:41:41;;;;;;;4.17;2.70;;;;;;;;;;4995456;28;20182;-71
2023/03/29 02:44:09;;;;;;;3.30;2.57;;;;;;;;;;4994583;28;20176;-71
2023/03/29 02:46:36;;;;;;;7.33;3.50;;;;;;;;;;4982827;28;20545;-72
2023/03/29 02:49:04;;;;;;;5.43;2.63;;;;;;;;;;4973991;28;20287;-71
2023/03/29 02:51:31;;;;;;;8.07;3.27;;;;;;;;;;4996582;28;20190;-72
2023/03/29 02:53:57;;;;;;;3.80;2.50;;;;;;;;;;4984445;28;20176;-72
2023/03/29 02:56:22;;;;;;;4.93;2.70;;;;;;;;;;4991856;28;20176;-72
2023/03/29 02:58:47;;;;;;;3.03;2.23;;;;;;;;;;4976023;28;20200;-72
2023/03/29 03:01:13;;;;;;;4.50;2.60;;;;;;;;;;4998448;28;20582;-72
2023/03/29 03:03:38;;;;;;;3.17;2.63;;;;;;;;;;4982412;28;20180;-72
2023/03/29 03:06:04;;;;;;;5.33;3.00;;;;;;;;;;4987464;28;20178;-72
2023/03/29 03:08:30;;;;;;;5.20;3.00;;;;;;;;;;4978915;28;20188;-72
2023/03/29 03:10:56;;;;;;;3.47;2.83;;;;;;;;;;4985344;28;20180;-72
2023/03/29 03:13:21;;;;;;;8.57;3.53;;;;;;;;;;4984601;28;20175;-71
2023/03/29 03:15:48;;;;;;;7.20;3.03;;;;;;;;;;4986770;28;20172;-72
2023/03/29 03:18:13;;;;;;;8.30;3.20;;;;;;;;;;4986778;28;20234;-72
2023/03/29 03:20:39;;;;;;;5.23;3.53;;;;;;;;;;4988172;28;20207;-71
2023/03/29 03:23:05;;;;;;;4.80;3.00;;;;;;;;;;4981587;28;20575;-71
2023/03/29 03:25:31;;;;;;;5.97;3.50;;;;;;;;;;4988779;28;20176;-71
2023/03/29 03:27:56;;;;;;;5.40;2.80;;;;;;;;;;4982219;28;20303;-71
2023/03/29 03:30:21;;;;;;;5.43;2.97;;;;;;;;;;4989578;28;20218;-71
2023/03/29 03:32:48;;;;;;;9.07;4.97;;;;;;;;;;4982251;28;20176;-72
2023/03/29 03:35:14;;;;;;;4.73;3.30;;;;;;;;;;4991606;28;20183;-71
2023/03/29 03:37:39;;;;;;;6.97;3.10;;;;;;;;;;4985835;28;20175;-71
2023/03/29 03:40:05;;;;;;;5.53;3.10;;;;;;;;;;4968364;28;20204;-71
2023/03/29 03:42:31;;;;;;;4.67;2.80;;;;;;;;;;4975899;28;20664;-72
2023/03/29 03:44:56;;;;;;;6.67;3.53;;;;;;;;;;4981642;28;20165;-71
2023/03/29 03:47:21;;;;;;;6.47;3.03;;;;;;;;;;4989354;28;20219;-71
2023/03/29 03:49:47;;;;;;;5.23;2.87;;;;;;;;;;4975460;28;20572;-71
2023/03/29 03:52:12;;;;;;;9.60;3.50;;;;;;;;;;4984130;28;20172;-71
2023/03/29 03:54:37;;;;;;;3.53;2.73;;;;;;;;;;4984145;28;20602;-71
2023/03/29 03:57:03;;;;;;;5.37;2.80;;;;;;;;;;4986973;28;20179;-71
2023/03/29 03:59:28;;;;;;;3.53;2.60;;;;;;;;;;4990242;28;20204;-71
2023/03/29 04:01:53;;;;;;;5.97;3.10;;;;;;;;;;4981219;28;20631;-72
2023/03/29 04:04:18;;;;;;;4.20;2.53;;;;;;;;;;4985285;28;20160;-72
2023/03/29 04:06:44;;;;;;;5.03;2.80;;;;;;;;;;4982007;28;20195;-70
2023/03/29 04:09:10;;;;;;;3.87;2.80;;;;;;;;;;4986813;28;20203;-72
2023/03/29 04:11:35;;;;;;;4.63;2.60;;;;;;;;;;4984918;28;20404;-72
2023/03/29 04:14:01;;;;;;;4.73;3.23;;;;;;;;;;4990208;28;20165;-72
2023/03/29 04:16:27;;;;;;;4.77;2.80;;;;;;;;;;4986538;28;20518;-72
2023/03/29 04:18:52;;;;;;;9.33;4.07;;;;;;;;;;4979333;28;20199;-72
2023/03/29 04:21:17;;;;;;;5.13;2.83;;;;;;;;;;4985664;28;20295;-72
2023/03/29 04:23:45;;;;;;;5.03;3.00;;;;;;;;;;4980174;28;20177;-71
2023/03/29 04:26:10;;;;;;;6.20;3.43;;;;;;;;;;4972780;28;20207;-72
2023/03/29 04:28:36;;;;;;;6.27;2.87;;;;;;;;;;4982205;28;20662;-71
2023/03/29 04:31:01;;;;;;;2.90;2.60;;;;;;;;;;4988639;28;20172;-71
2023/03/29 04:33:28;;;;;;;5.90;3.53;;;;;;;;;;4984129;28;20169;-71
2023/03/29 04:35:53;;;;;;;5.17;2.93;;;;;;;;;;4988281;28;20634;-72
2023/03/29 04:38:21;;;;;;;6.27;3.23;;;;;;;;;;4981663;28;20223;-70
2023/03/29 04:40:47;;;;;;;7.53;3.40;;;;;;;;;;4987633;28;20291;-70
2023/03/29 04:43:13;;;;;;;7.87;4.07;;;;;;;;;;4982315;28;20263;-70
2023/03/29 04:45:38;;;;;;;4.67;3.03;;;;;;;;;;4981900;28;20176;-72
2023/03/29 04:48:04;;;;;;;4.93;3.80;;;;;;;;;;4982036;28;20199;-70
2023/03/29 04:50:30;;;;;;;3.83;3.10;;;;;;;;;;4985046;28;20188;-72
2023/03/29 04:52:56;;;;;;;5.20;3.37;;;;;;;;;;4989186;28;20181;-70
2023/03/29 04:55:21;;;;;;;5.93;3.13;;;;;;;;;;4979833;28;20249;-72
2023/03/29 04:57:46;;;;;;;5.90;3.07;;;;;;;;;;4981589;28;20183;-72
2023/03/29 05:00:15;;;;;;;5.63;3.20;;;;;;;;;;4991711;28;20661;-72
2023/03/29 05:02:41;;;;;;;4.63;3.00;;;;;;;;;;4973729;28;20253;-72
2023/03/29 05:05:07;;;;;;;5.27;3.60;;;;;;;;;;4991015;28;20179;-71
2023/03/29 05:07:32;;;;;;;8.07;2.90;;;;;;;;;;4983858;28;20642;-72
2023/03/29 05:09:58;;;;;;;4.90;3.10;;;;;;;;;;4987604;28;20670;-72
2023/03/29 05:12:23;;;;;;;5.87;3.57;;;;;;;;;;4975668;28;20238;-72
2023/03/29 05:14:48;;;;;;;4.20;3.07;;;;;;;;;;4992828;28;20187;-71
2023/03/29 05:17:14;;;;;;;5.00;3.03;;;;;;;;;;4984447;28;20226;-71
2023/03/29 05:19:39;;;;;;;5.30;3.30;;;;;;;;;;4970455;28;20652;-72
2023/03/29 05:22:04;;;;;;;5.17;3.33;;;;;;;;;;4986611;28;20222;-71
2023/03/29 05:24:29;;;;;;;9.47;4.00;;;;;;;;;;4991219;28;20176;-71
2023/03/29 05:26:55;;;;;;;5.00;3.50;;;;;;;;;;4991043;28;20176;-71
2023/03/29 05:29:20;;;;;;;6.80;3.60;;;;;;;;;;4988831;28;20707;-71
2023/03/29 05:31:46;;;;;;;5.27;3.47;;;;;;;;;;4990637;28;20196;-71
2023/03/29 05:34:11;;;;;;;5.43;3.00;;;;;;;;;;4974037;28;20186;-72
2023/03/29 05:36:37;;;;;;;4.93;3.27;;;;;;;;;;4970908;28;20564;-71
2023/03/29 05:39:05;;;;;;;7.60;4.63;;;;;;;;;;4991056;28;20195;-71
2023/03/29 05:41:31;;;;;;;10.13;5.40;;;;;;;;;;4966613;28;20237;-72
2023/03/29 05:43:56;;;;;;;3.90;3.50;;;;;;;;;;4970959;28;20559;-72
2023/03/29 05:46:21;;;;;;;6.67;4.13;;;;;;;;;;4991128;28;20254;-72
2023/03/29 05:48:47;;;;;;;6.50;3.70;;;;;;;;;;4968588;28;20624;-72
2023/03/29 05:51:12;;;;;;;10.47;3.83;;;;;;;;;;4991686;28;20176;-72
2023/03/29 05:53:37;;;;;;;6.57;3.93;;;;;;;;;;4990645;28;20549;-72
2023/03/29 05:56:03;;;;;;;5.73;3.37;;;;;;;;;;4991565;28;20641;-72
2023/03/29 05:58:29;;;;;;;4.97;3.70;;;;;;;;;;4996145;28;20563;-72
2023/03/29 06:00:54;;;;;;;5.43;3.67;;;;;;;;;;4996834;28;20287;-72
2023/03/29 06:03:23;;;;;;;5.60;3.60;;;;;;;;;;4995647;28;20630;-72
2023/03/29 06:05:55;;;;;;;5.83;3.77;;;;;;;;;;4996808;28;20176;-72
2023/03/29 06:08:21;;;;;;;5.30;3.50;;;;;;;;;;4994637;28;20207;-71
2023/03/29 06:10:47;;;;;;;5.67;4.33;;;;;;;;;;4994980;28;20202;-72
2023/03/29 06:13:13;;;;;;;7.93;4.60;;;;;;;;;;4992327;28;20758;-72
2023/03/29 06:15:38;;;;;;;5.17;3.83;;;;;;;;;;4992671;28;20219;-71
2023/03/29 06:18:04;;;;;;;7.07;4.30;;;;;;;;;;4994377;28;20203;-71
2023/03/29 06:20:29;;;;;;;6.33;4.10;;;;;;;;;;4994230;28;20242;-71
2023/03/29 06:22:55;;;;;;;5.40;3.90;;;;;;;;;;4993892;28;20195;-71
2023/03/29 06:25:21;;;;;;;8.50;4.33;;;;;;;;;;4996632;28;20223;-72
2023/03/29 06:27:46;;;;;;;6.03;4.07;;;;;;;;;;4978350;28;20179;-71
2023/03/29 06:30:14;;;;;;;9.87;4.90;;;;;;;;;;4996370;28;20194;-72
2023/03/29 06:32:40;;;;;;;7.33;4.50;;;;;;;;;;4995513;28;20206;-71
2023/03/29 06:35:05;;;;;;;10.30;4.53;;;;;;;;;;4995044;28;20646;-71
2023/03/29 06:37:31;;;;;;;10.23;5.20;;;;;;;;;;4997026;28;20672;-71
2023/03/29 06:39:56;;;;;;;8.27;4.20;;;;;;;;;;4996589;28;20203;-71
2023/03/29 06:42:22;;;;;;;4.93;4.37;;;;;;;;;;4997269;28;20618;-71
2023/03/29 06:44:48;;;;;;;6.13;4.23;;;;;;;;;;4995308;28;20546;-71
2023/03/29 06:47:13;;;;;;;6.10;4.00;;;;;;;;;;4995271;28;20176;-71
2023/03/29 06:49:38;;;;;;;7.63;4.30;;;;;;;;;;4995388;28;20839;-72
2023/03/29 06:52:04;;;;;;;5.57;4.63;;;;;;;;;;4995228;28;20258;-72
2023/03/29 06:54:29;;;;;;;9.13;5.30;;;;;;;;;;4976404;28;20267;-71
2023/03/29 06:56:56;;;;;;;8.30;4.67;;;;;;;;;;4976409;28;20213;-71
2023/03/29 06:59:21;;;;;;;5.87;4.63;;;;;;;;;;4975292;28;20215;-71
2023/03/29 07:01:46;;;;;;;5.57;4.27;;;;;;;;;;4991472;28;20585;-71
2023/03/29 07:04:12;;;;;;;7.07;4.83;;;;;;;;;;4977630;28;20175;-71
2023/03/29 07:06:38;;;;;;;7.13;4.37;;;;;;;;;;4996030;28;20548;-71
2023/03/29 07:09:05;;;;;;;9.00;4.57;;;;;;;;;;4994031;28;20200;-71
2023/03/29 07:11:32;;;;;;;6.27;4.17;;;;;;;;;;4977096;28;20545;-72
2023/03/29 07:13:58;;;;;;;6.90;4.37;;;;;;;;;;4992459;28;20179;-71
2023/03/29 07:16:23;;;;;;;8.87;3.97;;;;;;;;;;4992205;28;20192;-71
2023/03/29 07:18:48;;;;;;;6.10;4.40;;;;;;;;;;4978233;28;20207;-71
2023/03/29 07:21:13;;;;;;;4.57;3.90;;;;;;;;;;4991261;28;20212;-71
2023/03/29 07:23:39;;;;;;;5.80;4.40;;;;;;;;;;4986144;28;20173;-71
2023/03/29 07:26:06;;;;;;;8.87;4.63;;;;;;;;;;4985843;28;20172;-71
2023/03/29 07:28:32;;;;;;;6.17;5.10;;;;;;;;;;4985726;28;20206;-71
2023/03/29 07:31:05;;;;;;;9.07;5.03;;;;;;;;;;4988201;28;20184;-71
2023/03/29 07:33:31;;;;;;;6.50;4.37;;;;;;;;;;4992595;28;20168;-71
2023/03/29 07:35:56;;;;;;;5.90;4.60;;;;;;;;;;4990927;28;20645;-71
2023/03/29 07:38:21;;;;;;;9.60;6.13;;;;;;;;;;4990052;28;20192;-71
2023/03/29 07:40:47;;;;;;;11.17;6.03;;;;;;;;;;4992498;28;20246;-71
2023/03/29 07:43:12;;;;;;;7.77;4.80;;;;;;;;;;4991441;28;20164;-71
2023/03/29 07:45:41;;;;;;;7.77;5.07;;;;;;;;;;4988521;28;20638;-71
2023/03/29 07:48:06;;;;;;;6.57;4.87;;;;;;;;;;4991306;28;20207;-71
2023/03/29 07:50:31;;;;;;;8.50;5.23;;;;;;;;;;4992511;28;20707;-71
2023/03/29 07:52:56;;;;;;;10.53;5.83;;;;;;;;;;4993396;28;20740;-71
2023/03/29 07:55:22;;;;;;;7.97;5.47;;;;;;;;;;4993182;28;20179;-71
2023/03/29 07:57:47;;;;;;;9.40;5.40;;;;;;;;;;4985347;28;20191;-71
2023/03/29 08:00:16;;;;;;;9.43;5.53;;;;;;;;;;4992900;28;20207;-71
2023/03/29 08:02:49;;;;;;;7.27;5.60;;;;;;;;;;4974239;28;20802;-71
2023/03/29 08:05:16;;;;;;;8.53;5.13;;;;;;;;;;4992594;28;20176;-71
2023/03/29 08:07:42;;;;;;;8.33;5.53;;;;;;;;;;4968722;28;21104;-71
2023/03/29 08:10:08;;;;;;;9.33;4.93;;;;;;;;;;4990837;28;20211;-71
2023/03/29 08:12:33;;;;;;;8.50;6.17;;;;;;;;;;4990011;28;20267;-71
2023/03/29 08:14:58;;;;;;;9.47;5.67;;;;;;;;;;4985220;28;20184;-71
2023/03/29 08:17:24;;;;;;;10.37;6.07;;;;;;;;;;4991124;28;20255;-71
2023/03/29 08:19:49;;;;;;;8.40;5.40;;;;;;;;;;4989288;28;20207;-70
2023/03/29 08:22:14;;;;;;;11.03;6.20;;;;;;;;;;4987715;28;20188;-71
2023/03/29 08:24:40;;;;;;;7.60;5.37;;;;;;;;;;4970689;28;20180;-71
2023/03/29 08:27:05;;;;;;;11.80;5.90;;;;;;;;;;4990128;28;20186;-71
2023/03/29 08:29:30;;;;;;;11.77;6.03;;;;;;;;;;4985767;28;20609;-70
2023/03/29 08:31:56;;;;;;;10.05;5.80;;;;;;;;;;4991391;28;20233;-71
2023/03/29 08:34:21;;;;;;;9.13;6.22;;;;;;;;;;4990058;28;20187;-71
2023/03/29 08:36:46;;;;;;;11.18;6.15;;;;;;;;;;4988947;28;20234;-71
2023/03/29 08:39:12;;;;;;;12.77;6.90;;;;;;;;;;4989096;28;20203;-71
2023/03/29 08:41:37;;;;;;;10.93;6.13;;;;;;;;;;4990010;28;20179;-70
2023/03/29 08:44:02;;;;;;;9.82;5.97;;;;;;;;;;4986701;28;20342;-71
2023/03/29 08:46:42;;;;;;;9.30;6.60;;;;;;;;;;4989628;28;20172;-71
2023/03/29 08:49:09;;;;;;;11.27;7.15;;;;;;;;;;4988374;28;20196;-70
2023/03/29 08:51:37;;;;;;;8.10;6.25;;;;;;;;;;4991593;28;20176;-70
2023/03/29 08:54:07;;;;;;;11.15;7.55;;;;;;;;;;4983135;28;20266;-71
2023/03/29 08:56:34;;;;;;;8.90;5.97;;;;;;;;;;4987802;28;20211;-71
2023/03/29 08:58:59;;;;;;;10.25;6.45;;;;;;;;;;4986505;28;20692;-70
2023/03/29 09:01:28;;;;;;;7.57;5.80;;;;;;;;;;4990148;28;20215;-70
2023/03/29 09:04:11;;;;;;;8.10;6.25;;;;;;;;;;4990533;28;20685;-71
2023/03/29 09:06:38;;;;;;;8.73;5.57;;;;;;;;;;4984522;28;20655;-71
2023/03/29 09:09:08;;;;;;;10.75;6.75;;;;;;;;;;4991819;28;20203;-71
2023/03/29 09:11:45;;;;;;;9.90;6.63;;;;;;;;;;4990106;28;20198;-71
2023/03/29 09:14:36;;;;;;;10.35;7.00;;;;;;;;;;4988278;28;20191;-70
2023/03/29 09:17:04;;;;;;;10.73;6.25;;;;;;;;;;4971057;28;20184;-70
2023/03/29 09:19:53;;;;;;;7.95;6.80;;;;;;;;;;4985451;28;20199;-71
2023/03/29 09:22:33;;;;;;;13.93;6.93;;;;;;;;;;4986281;28;20203;-71
2023/03/29 09:25:02;;;;;;;10.15;7.28;;;;;;;;;;4987858;28;20187;-71
2023/03/29 09:27:47;;;;;;;13.23;7.55;;;;;;;;;;4985638;28;20179;-71
2023/03/29 09:30:36;;;;;;;11.15;7.20;;;;;;;;;;4972393;28;20700;-71
2023/03/29 09:33:10;;;;;;;14.82;6.85;;;;;;;;;;4981369;28;20198;-71
2023/03/29 09:35:48;;;;;;;9.73;6.70;;;;;;;;;;4980117;28;20551;-70
2023/03/29 09:38:14;;;;;;;14.00;8.57;;;;;;;;;;4986471;28;20687;-71
2023/03/29 09:40:59;;;;;;;13.95;7.63;;;;;;;;;;4988703;28;20567;-71
2023/03/29 09:43:29;;;;;;;11.30;7.53;;;;;;;;;;4971536;28;20195;-71
2023/03/29 09:45:55;;;;;;;12.57;7.82;;;;;;;;;;4987673;28;20180;-71
2023/03/29 09:48:21;;;;;;;10.90;7.68;;;;;;;;;;4989243;28;20287;-71
2023/03/29 09:50:50;;;;;;;11.73;8.02;;;;;;;;;;4987387;28;20732;-71
2023/03/29 09:53:15;;;;;;;14.20;7.95;;;;;;;;;;4987039;28;20187;-70
2023/03/29 09:55:41;;;;;;;12.48;7.90;;;;;;;;;;4989945;28;20278;-70
2023/03/29 09:58:12;;;;;;;12.57;8.23;;;;;;;;;;4984282;28;20207;-70
2023/03/29 10:00:38;;;;;;;11.70;7.47;;;;;;;;;;4986151;28;20294;-71
2023/03/29 10:03:03;;;;;;;10.63;7.95;;;;;;;;;;4973697;28;20195;-71
2023/03/29 10:05:30;;;;;;;9.93;7.10;;;;;;;;;;4989309;28;20179;-71
2023/03/29 10:07:57;;;;;;;12.60;8.35;;;;;;;;;;4990203;28;20246;-70
2023/03/29 10:10:26;;;;;;;9.85;7.43;;;;;;;;;;4986884;28;20665;-70
2023/03/29 10:12:53;;;;;;;11.57;7.90;;;;;;;;;;4989577;28;20191;-71
2023/03/29 10:15:19;;;;;;;10.52;7.85;;;;;;;;;;4991165;28;20230;-71
2023/03/29 10:17:45;;;;;;;12.98;7.78;;;;;;;;;;4988954;28;20184;-71
2023/03/29 10:20:17;;;;;;;12.80;8.00;;;;;;;;;;4983682;28;20192;-70
2023/03/29 10:22:53;;;;;;;9.48;7.60;;;;;;;;;;4986856;28;20203;-71
2023/03/29 10:25:23;;;;;;;10.02;7.95;;;;;;;;;;4990260;28;20737;-70
2023/03/29 10:27:48;;;;;;;9.60;7.60;;;;;;;;;;4989131;28;20191;-70
2023/03/29 10:30:21;;;;;;;11.43;8.30;;;;;;;;;;4988523;28;20278;-71
2023/03/29 10:32:52;;;;;;;12.60;7.35;;;;;;;;;;4989042;28;20187;-70
2023/03/29 10:35:20;;;;;;;9.00;7.82;;;;;;;;;;4971958;28;20219;-70
2023/03/29 10:37:48;;;;;;;10.57;7.88;;;;;;;;;;4971653;28;20254;-70
2023/03/29 10:40:21;;;;;;;9.70;7.20;;;;;;;;;;4985577;28;20214;-70
2023/03/29 10:42:52;;;;;;;11.23;7.25;;;;;;;;;;4986849;28;20263;-70
2023/03/29 10:45:26;;;;;;;7.70;6.88;;;;;;;;;;4990159;28;20223;-70
2023/03/29 10:47:53;;;;;;;8.95;7.03;;;;;;;;;;4991502;28;20179;-72
2023/03/29 10:50:18;;;;;;;8.93;6.93;;;;;;;;;;4989962;28;20191;-70
2023/03/29 10:52:43;;;;;;;11.05;7.93;;;;;;;;;;4993208;28;20188;-70
2023/03/29 10:55:11;;;;;;;10.75;7.07;;;;;;;;;;4994073;28;20786;-71
2023/03/29 10:57:47;;;;;;;10.60;8.10;;;;;;;;;;4993689;28;20556;-70
2023/03/29 11:00:27;;;;;;;12.00;8.43;;;;;;;;;;4989959;28;20214;-70
2023/03/29 11:03:10;;;;;;;11.27;8.30;;;;;;;;;;4973626;28;20274;-70
2023/03/29 11:05:56;;;;;;;9.77;8.57;;;;;;;;;;4984403;28;20171;-71
2023/03/29 11:08:29;;;;;;;11.18;8.55;;;;;;;;;;4991379;28;20195;-71
2023/03/29 11:11:13;;;;;;;16.27;9.40;;;;;;;;;;4994021;28;20183;-71
2023/03/29 11:13:49;;;;;;;10.85;9.75;;;;;;;;;;4992859;28;20179;-71
2023/03/29 11:16:15;;;;;;;10.60;9.40;;;;;;;;;;4994084;28;20184;-71
2023/03/29 11:18:47;;;;;;;11.45;9.13;;;;;;;;;;4986492;28;20202;-71
2023/03/29 11:21:17;;;;;;;12.27;9.45;;;;;;;;;;4992118;28;20700;-71
2023/03/29 11:24:11;;;;;;;10.57;8.43;;;;;;;;;;4989247;28;20187;-71
2023/03/29 11:26:40;;;;;;;12.80;8.85;;;;;;;;;;4977294;28;20262;-71
2023/03/29 11:29:11;;;;;;;11.13;8.90;;;;;;;;;;4991584;28;20207;-71
2023/03/29 11:31:43;;;;;;;11.43;8.85;;;;;;;;;;4992577;28;21155;-71
2023/03/29 11:34:11;;;;;;;12.02;9.07;;;;;;;;;;4991584;28;20212;-71
2023/03/29 11:36:37;;;;;;;12.88;9.70;;;;;;;;;;4993699;28;20190;-71
2023/03/29 11:39:03;;;;;;;14.57;9.70;;;;;;;;;;4993718;28;20199;-71
2023/03/29 11:41:37;;;;;;;12.07;10.70;;;;;;;;;;4989978;28;20246;-70
2023/03/29 11:44:05;;;;;;;11.60;10.35;;;;;;;;;;4991450;28;20175;-70
2023/03/29 11:46:38;;;;;;;11.75;9.98;;;;;;;;;;4990352;28;20279;-70
2023/03/29 11:49:08;;;;;;;13.05;10.25;;;;;;;;;;4985350;28;20231;-71
2023/03/29 11:51:40;;;;;;;11.63;10.43;;;;;;;;;;4993073;28;20180;-70
2023/03/29 11:54:08;;;;;;;13.55;10.65;;;;;;;;;;4973391;28;20615;-70
2023/03/29 11:56:42;;;;;;;13.27;10.50;;;;;;;;;;4991111;28;20180;-71
2023/03/29 11:59:14;;;;;;;11.45;10.25;;;;;;;;;;4986707;28;20269;-70
2023/03/29 12:01:53;;;;;;;13.65;10.38;;;;;;;;;;4975773;28;20191;-70
2023/03/29 12:04:23;;;;;;;13.60;11.52;;;;;;;;;;4990389;28;20298;-71
2023/03/29 12:06:52;;;;;;;14.82;11.13;;;;;;;;;;4992538;28;20211;-70
2023/03/29 12:09:22;;;;;;;15.23;11.45;;;;;;;;;;4987793;28;20199;-70
2023/03/29 12:11:50;;;;;;;13.77;12.02;;;;;;;;;;4990954;28;20249;-70
2023/03/29 12:14:29;;;;;;;17.30;12.50;;;;;;;;;;4989238;28;20175;-70
2023/03/29 12:16:59;;;;;;;14.07;12.57;;;;;;;;;;4988237;28;20207;-70
2023/03/29 12:19:25;;;;;;;16.30;12.00;;;;;;;;;;4990682;28;20257;-70
2023/03/29 12:21:53;;;;;;;14.15;12.65;;;;;;;;;;4990966;28;20657;-70
2023/03/29 12:24:19;;;;;;;15.50;12.63;;;;;;;;;;4987392;28;20547;-70
2023/03/29 12:26:50;;;;;;;13.18;10.50;;;;;;;;;;4990762;28;20245;-70
2023/03/29 12:29:21;;;;;;;14.27;9.93;;;;;;;;;;4991060;28;20203;-70
2023/03/29 12:31:46;;;;;;;12.88;10.75;;;;;;;;;;4992941;28;20211;-70
2023/03/29 12:34:23;;;;;;;15.90;9.50;;;;;;;;;;4990469;28;20215;-71
2023/03/29 12:37:00;;;;;;;11.68;7.28;;;;;;;;;;4989436;28;20263;-70
2023/03/29 12:39:27;;;;;;;10.57;8.30;;;;;;;;;;4990498;28;20211;-70
2023/03/29 12:41:52;;;;;;;12.00;7.53;;;;;;;;;;4989464;28;20215;-71
2023/03/29 12:44:20;;;;;;;8.88;7.18;;;;;;;;;;4986870;28;20206;-71
2023/03/29 12:46:49;;;;;;;9.63;6.93;;;;;;;;;;4990725;28;20180;-70
2023/03/29 12:49:32;;;;;;;10.05;6.85;;;;;;;;;;4989933;28;20223;-70
2023/03/29 12:51:59;;;;;;;8.32;7.45;;;;;;;;;;4975189;28;20230;-70
2023/03/29 12:54:27;;;;;;;12.07;8.02;;;;;;;;;;4991026;28;20187;-72
2023/03/29 12:56:53;;;;;;;9.63;8.00;;;;;;;;;;4988755;28;20180;-71
2023/03/29 12:59:18;;;;;;;9.60;8.57;;;;;;;;;;4987991;28;20211;-71
2023/03/29 13:01:55;;;;;;;8.82;7.35;;;;;;;;;;4973071;28;20180;-72
2023/03/29 13:04:21;;;;;;;11.05;9.02;;;;;;;;;;4992927;28;20184;-72
2023/03/29 13:06:46;;;;;;;10.07;8.57;;;;;;;;;;4971081;28;20195;-71
2023/03/29 13:09:22;;;;;;;10.33;9.20;;;;;;;;;;4974503;28;20199;-71
2023/03/29 13:11:54;;;;;;;9.82;8.15;;;;;;;;;;4991465;28;20413;-71
2023/03/29 13:14:20;;;;;;;9.90;8.45;;;;;;;;;;4992231;28;20194;-72
2023/03/29 13:16:46;;;;;;;12.82;9.18;;;;;;;;;;4991912;28;20176;-72
2023/03/29 13:19:20;;;;;;;10.63;8.77;;;;;;;;;;4974107;28;20206;-72
2023/03/29 13:22:09;;;;;;;9.18;8.18;;;;;;;;;;4986732;28;20274;-71
2023/03/29 13:24:49;;;;;;;12.05;8.85;;;;;;;;;;4990201;28;20230;-71
2023/03/29 13:27:15;;;;;;;10.23;8.88;;;;;;;;;;4989333;28;20175;-71
2023/03/29 13:29:59;;;;;;;11.30;9.30;;;;;;;;;;4988975;28;20212;-71
2023/03/29 13:32:31;;;;;;;12.40;8.98;;;;;;;;;;4990881;28;20649;-71
2023/03/29 13:35:05;;;;;;;12.02;9.32;;;;;;;;;;4991236;28;20184;-71
2023/03/29 13:37:50;;;;;;;9.85;8.88;;;;;;;;;;4992074;28;20194;-70
2023/03/29 13:40:31;;;;;;;10.20;9.00;;;;;;;;;;4990748;28;20197;-70
2023/03/29 13:42:58;;;;;;;10.75;9.75;;;;;;;;;;4991159;28;20178;-70
2023/03/29 13:45:28;;;;;;;9.90;8.90;;;;;;;;;;4991089;28;20262;-70
2023/03/29 13:48:02;;;;;;;10.95;9.15;;;;;;;;;;4991160;28;20615;-71
2023/03/29 13:50:35;;;;;;;13.20;10.45;;;;;;;;;;4972060;28;20210;-71
2023/03/29 13:53:04;;;;;;;11.20;9.20;;;;;;;;;;4990683;28;20187;-70
2023/03/29 13:55:32;;;;;;;12.10;10.02;;;;;;;;;;4969859;28;20259;-70
2023/03/29 13:58:06;;;;;;;11.10;9.93;;;;;;;;;;4987708;28;20202;-70
2023/03/29 14:00:35;;;;;;;11.30;10.10;;;;;;;;;;4991139;28;20210;-71
2023/03/29 14:03:04;;;;;;;10.57;9.43;;;;;;;;;;4991138;28;20465;-71
2023/03/29 14:05:30;;;;;;;11.98;8.98;;;;;;;;;;4991327;28;20650;-71
2023/03/29 14:07:56;;;;;;;11.70;10.48;;;;;;;;;;4990204;28;20176;-71
2023/03/29 14:10:26;;;;;;;11.45;9.40;;;;;;;;;;4986932;28;20176;-71
2023/03/29 14:12:52;;;;;;;10.57;9.45;;;;;;;;;;4991384;28;20697;-70
2023/03/29 14:15:22;;;;;;;11.35;10.15;;;;;;;;;;4991271;28;20180;-71
2023/03/29 14:17:48;;;;;;;11.48;9.23;;;;;;;;;;4991445;28;20184;-70
2023/03/29 14:20:13;;;;;;;12.30;9.23;;;;;;;;;;4994729;28;20196;-70
2023/03/29 14:22:40;;;;;;;10.65;9.02;;;;;;;;;;4994366;28;20171;-70
2023/03/29 14:25:11;;;;;;;11.38;8.60;;;;;;;;;;4993325;28;20218;-71
2023/03/29 14:27:37;;;;;;;9.18;8.27;;;;;;;;;;4992942;28;20664;-71
2023/03/29 14:30:16;;;;;;;8.10;7.35;;;;;;;;;;4974718;28;20215;-71
2023/03/29 14:32:41;;;;;;;9.00;7.68;;;;;;;;;;4992379;28;20540;-71
2023/03/29 14:35:08;;;;;;;7.68;6.90;;;;;;;;;;4977365;28;20234;-70
2023/03/29 14:37:33;;;;;;;11.20;7.88;;;;;;;;;;4990956;28;20171;-68
2023/03/29 14:39:59;;;;;;;7.50;6.18;;;;;;;;;;4993273;28;20582;-70
2023/03/29 14:42:26;;;;;;;7.53;6.45;;;;;;;;;;4992288;28;20179;-71
2023/03/29 14:44:56;;;;;;;8.10;7.30;;;;;;;;;;4971443;28;20179;-71